Currently 55°F in Pinon Hills, California, USA
55°F
55°F / 54°F
4 mph SW
0.00"
Tuesday, October 15, 2019 12:06 AM PDT

Pinon Hills, California Weather Summary
Last 36 Hours

Temperature Winds Hourly Humidity Dewpoint
Time Report Norm Report Norm Max Gusts Precip. Rpt. Norm Rpt. Norm Pressure
1Tue 12:06 AM  54.6°F  58°F  4 mph SW  2 mph  5 mph  0.00"  28%  43%  21°F  35°F  30.00"
2Tue 12:05 AM  54.7°F  58°F  4 mph SW  2 mph  5 mph  ----  28%  43%  21°F  35°F  30.00"
3Tue 12:01 AM  54.4°F  58°F  4 mph SW  2 mph  5 mph  ----  28%  42%  21°F  34°F  30.00"
Tue 12:00 AM  54.5°F  58°F  3 mph SW  2 mph  7 mph  0.00"  28%  42%  21°F  35°F  30.00"
Mon 11:00 PM  55.7°F  59°F  4 mph SW  2 mph  8 mph  0.00"  27%  41%  21°F  34°F  29.99"
Mon 10:00 PM  56.9°F  60°F  4 mph SW  2 mph  8 mph  0.00"  25%  40%  20°F  34°F  29.98"
Mon 09:00 PM  57.2°F  60°F  5 mph SW  2 mph  9 mph  0.00"  24%  39%  20°F  34°F  29.96"
Mon 08:00 PM  57.5°F  61°F  5 mph SW  2 mph  8 mph  0.00"  24%  37%  20°F  34°F  29.95"
Mon 07:00 PM  58.3°F  63°F  4 mph SW  2 mph  6 mph  0.00"  24%  35%  20°F  34°F  29.93"
Mon 06:00 PM  65.6°F  68°F  calm  3 mph  8 mph  0.00"  18%  30%  19°F  35°F  29.92"
Mon 05:00 PM  68.8°F  72°F  calm  3 mph  10 mph  0.00"  16%  26%  19°F  34°F  29.91"
Mon 04:00 PM  70.0°F  73°F  5 mph SE  3 mph  10 mph  0.00"  15%  25%  19°F  34°F  29.91"
Mon 03:00 PM  69.9°F  73°F  3 mph E  4 mph  8 mph  0.00"  14%  24%  17°F  33°F  29.90"
Mon 02:00 PM  68.6°F  73°F  2 mph E  4 mph  10 mph  0.00"  14%  25%  16°F  33°F  29.90"
Mon 01:00 PM  68.4°F  72°F  2 mph SE  4 mph  11 mph  0.00"  15%  26%  17°F  34°F  29.91"
Mon 12:00 PM  66.4°F  70°F  3 mph NE  3 mph  10 mph  0.00"  16%  28%  18°F  35°F  29.92"
Mon 11:00 AM  63.8°F  69°F  5 mph NE  3 mph  9 mph  0.00"  19%  31%  20°F  35°F  29.93"
Mon 10:00 AM  63.1°F  66°F  5 mph N  2 mph  9 mph  0.00"  19%  33%  19°F  36°F  29.93"
Mon 09:00 AM  61.3°F  64°F  3 mph NW  2 mph  8 mph  0.00"  19%  36%  17°F  35°F  29.92"
Mon 08:00 AM  56.5°F  60°F  2 mph SW  2 mph  8 mph  0.00"  22%  41%  16°F  35°F  29.90"
Mon 07:00 AM  50.3°F  55°F  5 mph SW  2 mph  8 mph  0.00"  25%  45%  14°F  33°F  29.88"
Mon 06:00 AM  50.2°F  55°F  5 mph SW  2 mph  10 mph  0.00"  27%  46%  16°F  34°F  29.87"
Mon 05:00 AM  51.3°F  56°F  4 mph SW  2 mph  9 mph  0.00"  30%  44%  20°F  33°F  29.86"
Mon 04:00 AM  49.5°F  57°F  4 mph SW  2 mph  7 mph  0.00"  37%  44%  23°F  34°F  29.85"
Mon 03:00 AM  48.8°F  57°F  2 mph SW  2 mph  9 mph  0.00"  37%  43%  23°F  34°F  29.85"
Mon 02:00 AM  52.4°F  57°F  3 mph W  2 mph  6 mph  0.00"  28%  43%  19°F  34°F  29.84"
Mon 01:00 AM  48.2°F  58°F  calm  2 mph  3 mph  0.00"  38%  42%  22°F  34°F  29.84"
Mon 12:00 AM  54.5°F  59°F  1 mph SW  2 mph  9 mph  0.00"  26%  41%  19°F  34°F  29.85"
Sun 11:00 PM  58.2°F  60°F  5 mph SW  2 mph  10 mph  0.00"  22%  39%  18°F  34°F  29.84"
Sun 10:00 PM  57.3°F  60°F  5 mph SW  2 mph  9 mph  0.00"  26%  38%  21°F  34°F  29.84"
Sun 09:00 PM  56.6°F  61°F  3 mph SW  2 mph  7 mph  0.00"  29%  37%  24°F  34°F  29.84"
Sun 08:00 PM  58.2°F  62°F  4 mph SW  2 mph  9 mph  0.00"  25%  36%  21°F  34°F  29.82"
Sun 07:00 PM  59.9°F  64°F  4 mph SW  2 mph  7 mph  0.00"  22%  34%  19°F  34°F  29.81"
Sun 06:00 PM  66.0°F  69°F  2 mph S  2 mph  8 mph  0.00"  15%  29%  15°F  34°F  29.81"
Sun 05:00 PM  71.0°F  72°F  4 mph SE  3 mph  9 mph  0.00"  14%  25%  17°F  34°F  29.81"
Sun 04:00 PM  71.2°F  74°F  calm  4 mph  11 mph  0.00"  12%  24%  14°F  33°F  29.82"
Sun 03:00 PM  71.3°F  74°F  6 mph SE  4 mph  15 mph  0.00"  12%  23%  13°F  33°F  29.83"
Sun 02:00 PM  70.7°F  74°F  6 mph W  4 mph  13 mph  0.00"  11%  24%  12°F  33°F  29.83"
Sun 01:00 PM  70.0°F  73°F  3 mph SE  4 mph  10 mph  0.00"  13%  25%  14°F  34°F  29.85"
Sun 12:00 PM  67.3°F  71°F  5 mph E  3 mph  8 mph  0.00"  13%  27%  12°F  34°F  29.88"

  1. Current weather data. No green row appears if the current weather data is also the high or low for the current day.
  2. High temperature for the current day.
  3. Low temperature for the current day.

The Pinon Hills, California weather pages are a service of WeatherCurrents.
Copyright ©2019  WeatherCurrents. All rights reserved. - Submit questions and comments - Privacy Policy

This page automatically refreshes every 10 minutes.